Time;durP1;ratioP1;P1;durP2;ratioP2;P2;SDS_P1;SDS_P2;PMS_P1;PMS_P2;Temp;Humidity;BMP_temperature;BMP_pressure;BME280_temperature;BME280_humidity;BME280_pressure;Samples;Min_cycle;Max_cycle;Signal;HPM_P1;HPM_P2
2020/12/17 00:01:11;;;;;;;4.82;2.75;;;9.20;99.90;;;;;;5002973;28;20491;-65
2020/12/17 00:03:37;;;;;;;4.70;2.58;;;9.20;99.90;;;;;;5012458;28;20029;-64
2020/12/17 00:06:03;;;;;;;3.90;2.30;;;9.20;99.90;;;;;;5004518;28;20034;-65
2020/12/17 00:08:28;;;;;;;5.00;2.72;;;9.20;99.90;;;;;;5006583;28;20172;-65
2020/12/17 00:10:54;;;;;;;9.57;3.38;;;9.20;99.90;;;;;;5008763;28;20158;-65
2020/12/17 00:13:21;;;;;;;5.30;2.88;;;9.10;99.90;;;;;;5022792;28;20037;-63
2020/12/17 00:15:47;;;;;;;5.25;2.97;;;9.10;99.90;;;;;;5006686;28;20030;-65
2020/12/17 00:18:13;;;;;;;7.90;3.80;;;9.10;99.90;;;;;;5006519;28;20088;-64
2020/12/17 00:20:38;;;;;;;4.88;2.95;;;9.10;99.90;;;;;;5002865;28;20034;-65
2020/12/17 00:23:04;;;;;;;6.03;3.10;;;9.10;99.90;;;;;;5008155;28;20038;-63
2020/12/17 00:25:29;;;;;;;5.95;3.00;;;9.10;99.90;;;;;;5004322;28;20104;-64
2020/12/17 00:27:55;;;;;;;4.53;2.40;;;9.10;99.90;;;;;;5004895;28;20080;-63
2020/12/17 00:30:21;;;;;;;6.53;2.92;;;9.10;99.90;;;;;;5001162;28;20077;-64
2020/12/17 00:32:48;;;;;;;7.20;3.45;;;9.10;99.90;;;;;;5002911;28;20032;-64
2020/12/17 00:35:14;;;;;;;6.25;3.13;;;9.00;99.90;;;;;;5003807;28;20030;-65
2020/12/17 00:37:40;;;;;;;5.75;2.80;;;9.10;99.90;;;;;;5009678;28;20389;-63
2020/12/17 00:40:11;;;;;;;5.25;2.70;;;9.00;99.90;;;;;;5004764;28;20041;-64
2020/12/17 00:42:40;;;;;;;4.70;2.83;;;9.10;99.90;;;;;;5006126;28;20065;-64
2020/12/17 00:45:07;;;;;;;8.35;2.80;;;9.10;99.90;;;;;;5004319;28;20081;-63
2020/12/17 00:47:32;;;;;;;4.13;2.30;;;9.00;99.90;;;;;;5006002;28;20041;-64
2020/12/17 00:49:58;;;;;;;6.70;2.95;;;9.00;99.90;;;;;;5003540;28;20458;-65
2020/12/17 00:52:24;;;;;;;5.85;2.92;;;9.00;99.90;;;;;;5001119;28;20455;-64
2020/12/17 00:54:50;;;;;;;5.82;2.45;;;9.10;99.90;;;;;;5003403;28;20026;-64
2020/12/17 00:57:16;;;;;;;5.88;2.95;;;9.00;99.90;;;;;;5002721;28;20548;-65
2020/12/17 00:59:41;;;;;;;4.72;2.55;;;9.00;99.90;;;;;;5006404;28;20038;-65
2020/12/17 01:02:07;;;;;;;4.82;2.70;;;9.10;99.90;;;;;;5000243;28;20022;-64
2020/12/17 01:04:33;;;;;;;7.47;3.30;;;9.00;99.90;;;;;;4999929;28;20035;-64
2020/12/17 01:06:58;;;;;;;4.57;2.63;;;9.10;99.90;;;;;;5001588;28;20033;-64
2020/12/17 01:09:24;;;;;;;5.38;2.78;;;9.10;99.90;;;;;;4999673;28;20053;-65
2020/12/17 01:11:49;;;;;;;3.70;2.30;;;9.10;99.90;;;;;;5002292;28;20044;-64
2020/12/17 01:14:15;;;;;;;9.48;3.15;;;9.10;99.90;;;;;;4997936;28;20121;-64
2020/12/17 01:16:40;;;;;;;5.85;3.22;;;9.10;99.90;;;;;;5000828;28;20083;-65
2020/12/17 01:19:06;;;;;;;6.57;2.85;;;9.00;99.90;;;;;;4999309;28;20052;-64
2020/12/17 01:21:32;;;;;;;8.50;2.85;;;9.00;99.90;;;;;;5000934;28;20034;-63
2020/12/17 01:23:57;;;;;;;8.75;2.80;;;9.00;99.90;;;;;;5002058;28;20041;-64
2020/12/17 01:26:23;;;;;;;5.18;2.75;;;9.00;99.90;;;;;;4999971;28;20490;-65
2020/12/17 01:28:48;;;;;;;6.43;2.60;;;9.10;99.90;;;;;;5002704;28;20052;-65
2020/12/17 01:31:15;;;;;;;10.20;3.10;;;9.10;99.90;;;;;;4999839;28;20054;-64
2020/12/17 01:33:42;;;;;;;5.30;3.05;;;9.10;99.90;;;;;;5002066;28;20463;-63
2020/12/17 01:36:09;;;;;;;4.25;2.55;;;9.10;99.90;;;;;;5001277;28;20022;-65
2020/12/17 01:38:35;;;;;;;5.97;2.50;;;9.00;99.90;;;;;;5000667;28;20088;-64
2020/12/17 01:41:02;;;;;;;4.63;2.30;;;9.10;99.90;;;;;;4999203;28;20030;-63
2020/12/17 01:43:34;;;;;;;5.32;2.60;;;9.00;99.90;;;;;;5000248;28;20069;-65
2020/12/17 01:45:59;;;;;;;6.85;2.90;;;9.10;99.90;;;;;;5000479;28;20109;-64
2020/12/17 01:48:26;;;;;;;6.63;2.70;;;9.10;99.90;;;;;;4999790;28;20046;-65
2020/12/17 01:50:51;;;;;;;3.88;2.60;;;9.10;99.90;;;;;;4999998;28;20033;-64
2020/12/17 01:53:17;;;;;;;5.20;2.63;;;9.10;99.90;;;;;;4998802;28;20039;-65
2020/12/17 01:55:42;;;;;;;6.75;2.70;;;9.20;99.90;;;;;;5000108;28;20038;-64
2020/12/17 01:58:13;;;;;;;5.57;2.47;;;9.20;99.90;;;;;;5030798;28;20030;-65
2020/12/17 02:00:38;;;;;;;6.82;3.13;;;9.20;99.90;;;;;;5001782;28;20209;-65
2020/12/17 02:03:06;;;;;;;5.15;3.00;;;9.20;99.90;;;;;;5000303;28;20052;-64
2020/12/17 02:05:32;;;;;;;5.55;2.58;;;9.20;99.90;;;;;;5000956;28;20042;-63
2020/12/17 02:07:59;;;;;;;6.15;3.25;;;9.20;99.90;;;;;;5000131;28;20117;-64
2020/12/17 02:10:26;;;;;;;5.72;2.90;;;9.20;99.90;;;;;;4998565;28;20041;-65
2020/12/17 02:12:51;;;;;;;7.10;3.03;;;9.10;99.90;;;;;;5001083;28;20026;-65
2020/12/17 02:15:19;;;;;;;4.25;2.38;;;9.10;99.90;;;;;;4999485;28;20435;-65
2020/12/17 02:17:44;;;;;;;7.75;2.65;;;9.10;99.90;;;;;;5002204;28;20449;-63
2020/12/17 02:20:11;;;;;;;5.13;2.90;;;9.10;99.90;;;;;;4999628;28;20030;-64
2020/12/17 02:22:37;;;;;;;5.72;3.00;;;9.10;99.90;;;;;;5002000;28;20037;-63
2020/12/17 02:25:05;;;;;;;5.90;2.58;;;9.10;99.90;;;;;;4999349;28;20033;-65
2020/12/17 02:27:31;;;;;;;4.07;2.50;;;9.00;99.90;;;;;;5000722;28;20512;-64
2020/12/17 02:29:56;;;;;;;5.40;2.95;;;9.10;99.90;;;;;;5000158;28;20117;-65
2020/12/17 02:32:22;;;;;;;7.63;2.72;;;9.10;99.90;;;;;;4999874;28;20487;-63
2020/12/17 02:34:47;;;;;;;3.90;2.25;;;9.00;99.90;;;;;;5001884;28;20030;-64
2020/12/17 02:37:14;;;;;;;4.32;2.47;;;9.00;99.90;;;;;;4997270;28;20050;-65
2020/12/17 02:39:40;;;;;;;10.57;2.50;;;9.00;99.90;;;;;;5002208;28;20372;-64
2020/12/17 02:42:05;;;;;;;5.72;2.60;;;9.00;99.90;;;;;;4998534;28;20049;-65
2020/12/17 02:44:31;;;;;;;5.38;2.72;;;9.00;99.90;;;;;;5001175;28;20105;-64
2020/12/17 02:46:56;;;;;;;4.32;2.67;;;9.00;99.90;;;;;;4999540;28;20375;-65
2020/12/17 02:49:22;;;;;;;5.07;2.80;;;9.00;99.90;;;;;;4999452;28;20392;-64
2020/12/17 02:51:47;;;;;;;5.57;2.67;;;9.10;99.90;;;;;;5001693;28;20038;-65
2020/12/17 02:54:13;;;;;;;6.45;2.80;;;9.10;99.90;;;;;;4997952;28;20034;-65
2020/12/17 02:56:38;;;;;;;4.25;2.47;;;9.10;99.90;;;;;;5002178;28;20059;-64
2020/12/17 02:59:04;;;;;;;5.32;2.58;;;9.10;99.90;;;;;;4997431;28;20048;-65
2020/12/17 03:01:29;;;;;;;5.68;2.58;;;9.10;99.90;;;;;;5000708;28;20042;-64
2020/12/17 03:03:55;;;;;;;5.43;3.25;;;9.10;99.90;;;;;;5000614;28;20072;-65
2020/12/17 03:06:20;;;;;;;4.90;2.58;;;9.10;99.90;;;;;;4998496;28;20117;-64
2020/12/17 03:08:47;;;;;;;4.25;2.10;;;9.10;99.90;;;;;;5001282;28;20429;-65
2020/12/17 03:11:12;;;;;;;5.97;2.80;;;9.10;99.90;;;;;;4998168;28;20023;-66
2020/12/17 03:13:38;;;;;;;4.88;2.47;;;9.10;99.90;;;;;;4998649;28;20038;-64
2020/12/17 03:16:03;;;;;;;4.43;2.80;;;9.10;99.90;;;;;;4999421;28;20033;-64
2020/12/17 03:18:29;;;;;;;4.38;2.25;;;9.10;99.90;;;;;;4999765;28;20414;-65
2020/12/17 03:20:55;;;;;;;6.65;3.00;;;9.10;99.90;;;;;;5000336;28;20039;-65
2020/12/17 03:23:21;;;;;;;7.85;2.92;;;9.10;99.90;;;;;;5000253;28;20034;-64
2020/12/17 03:25:46;;;;;;;7.00;3.50;;;9.10;99.90;;;;;;4999817;28;20037;-64
2020/12/17 03:28:12;;;;;;;5.72;2.92;;;9.10;99.90;;;;;;5001165;28;20461;-64
2020/12/17 03:30:38;;;;;;;4.72;2.80;;;9.10;99.90;;;;;;4998917;28;20399;-65
2020/12/17 03:33:03;;;;;;;5.05;2.92;;;9.10;99.90;;;;;;5001004;28;20030;-63
2020/12/17 03:35:29;;;;;;;5.13;2.83;;;9.10;99.90;;;;;;4998232;28;20112;-64
2020/12/17 03:37:58;;;;;;;6.20;2.85;;;9.10;99.90;;;;;;4998714;28;20057;-63
2020/12/17 03:40:27;;;;;;;6.82;2.85;;;9.10;99.90;;;;;;4998292;28;20084;-66
2020/12/17 03:42:53;;;;;;;8.40;3.40;;;9.10;99.90;;;;;;4998281;28;20030;-63
2020/12/17 03:45:19;;;;;;;6.03;2.95;;;9.10;99.90;;;;;;4998956;28;20026;-64
2020/12/17 03:47:45;;;;;;;5.97;3.33;;;9.10;99.90;;;;;;4997214;28;20526;-64
2020/12/17 03:50:10;;;;;;;5.70;2.92;;;9.10;99.90;;;;;;5000000;28;20078;-66
2020/12/17 03:52:36;;;;;;;9.57;4.07;;;9.10;99.90;;;;;;4997388;28;20125;-64
2020/12/17 03:55:02;;;;;;;7.20;3.65;;;9.10;99.90;;;;;;5000443;28;20044;-65
2020/12/17 03:57:28;;;;;;;10.18;3.88;;;9.20;99.90;;;;;;4997624;28;20034;-64
2020/12/17 03:59:53;;;;;;;8.20;3.67;;;9.20;99.90;;;;;;4998012;28;20038;-63
2020/12/17 04:02:19;;;;;;;7.72;3.70;;;9.20;99.90;;;;;;4997748;28;20030;-64
2020/12/17 04:04:46;;;;;;;9.20;4.40;;;9.20;99.90;;;;;;4998181;28;20442;-66
2020/12/17 04:07:13;;;;;;;6.90;3.90;;;9.20;99.90;;;;;;5000516;28;20038;-64
2020/12/17 04:09:42;;;;;;;12.80;4.82;;;9.20;99.90;;;;;;4997105;28;20399;-63
2020/12/17 04:12:08;;;;;;;9.43;4.60;;;9.20;99.90;;;;;;4996662;28;20562;-65
2020/12/17 04:14:34;;;;;;;12.70;4.70;;;9.20;99.90;;;;;;5001492;28;20042;-64
2020/12/17 04:16:59;;;;;;;8.40;4.65;;;9.20;99.90;;;;;;5000204;28;20056;-65
2020/12/17 04:19:25;;;;;;;10.02;4.95;;;9.20;99.90;;;;;;5000362;28;20563;-66
2020/12/17 04:21:50;;;;;;;9.38;4.53;;;9.20;99.90;;;;;;5003304;28;20034;-63
2020/12/17 04:24:16;;;;;;;11.25;5.35;;;9.20;99.90;;;;;;5003296;28;20033;-64
2020/12/17 04:26:41;;;;;;;9.68;4.32;;;9.20;99.90;;;;;;5001263;28;20035;-64
2020/12/17 04:29:07;;;;;;;9.85;4.93;;;9.20;99.90;;;;;;5003239;28;20173;-65
2020/12/17 04:31:33;;;;;;;10.77;5.30;;;9.20;99.90;;;;;;4999522;28;20030;-63
2020/12/17 04:33:59;;;;;;;9.05;5.07;;;9.20;99.90;;;;;;5003900;28;20048;-64
2020/12/17 04:36:25;;;;;;;8.40;4.82;;;9.20;99.90;;;;;;5002438;28;20468;-64
2020/12/17 04:38:51;;;;;;;9.15;5.28;;;9.20;99.90;;;;;;5002867;28;20113;-64
2020/12/17 04:41:18;;;;;;;10.15;5.60;;;9.10;99.90;;;;;;5003245;28;20046;-65
2020/12/17 04:43:45;;;;;;;11.02;5.10;;;9.10;99.90;;;;;;5000332;28;20565;-62
2020/12/17 04:46:14;;;;;;;11.45;4.95;;;9.10;99.90;;;;;;5002789;28;20038;-64
2020/12/17 04:48:42;;;;;;;10.13;5.38;;;9.10;99.90;;;;;;5000862;28;20094;-64
2020/12/17 04:51:08;;;;;;;8.85;5.57;;;9.10;99.90;;;;;;5004488;28;20034;-64
2020/12/17 04:53:37;;;;;;;13.85;6.32;;;9.10;99.90;;;;;;4999101;28;20234;-64
2020/12/17 04:56:02;;;;;;;7.97;4.68;;;9.00;99.90;;;;;;5004303;28;20026;-62
2020/12/17 04:58:31;;;;;;;9.43;4.88;;;9.00;99.90;;;;;;5036866;23;20629;-60
2020/12/17 05:00:57;;;;;;;10.77;4.97;;;9.10;99.90;;;;;;5017956;28;20042;-62
2020/12/17 05:03:23;;;;;;;10.07;6.00;;;9.10;99.90;;;;;;5021311;28;20397;-60
2020/12/17 05:05:52;;;;;;;11.55;6.35;;;9.00;99.90;;;;;;5020156;28;20032;-60
2020/12/17 05:08:22;;;;;;;10.13;5.60;;;9.00;99.90;;;;;;5020244;28;20026;-60
2020/12/17 05:10:48;;;;;;;11.77;5.20;;;9.00;99.90;;;;;;5020182;28;20486;-60
2020/12/17 05:13:16;;;;;;;9.65;5.78;;;9.00;99.90;;;;;;5019685;28;20482;-59
2020/12/17 05:15:43;;;;;;;10.98;6.20;;;9.00;99.90;;;;;;5020956;28;20030;-61
2020/12/17 05:18:08;;;;;;;11.40;6.10;;;9.00;99.90;;;;;;5019034;28;20609;-61
2020/12/17 05:20:36;;;;;;;10.25;5.55;;;9.00;99.90;;;;;;5021727;28;20120;-60
2020/12/17 05:23:03;;;;;;;12.52;6.10;;;9.00;99.90;;;;;;5021830;28;20471;-61
2020/12/17 05:25:30;;;;;;;12.27;6.43;;;9.00;99.90;;;;;;5018920;28;20045;-60
2020/12/17 05:27:56;;;;;;;11.32;5.93;;;9.00;99.90;;;;;;5020705;28;20044;-60
2020/12/17 05:30:31;;;;;;;14.75;5.82;;;9.00;99.90;;;;;;5019659;28;20025;-61
2020/12/17 05:32:58;;;;;;;11.45;5.97;;;8.90;99.90;;;;;;5017997;28;20109;-59
2020/12/17 05:35:23;;;;;;;11.98;6.80;;;8.90;99.90;;;;;;5019352;28;20136;-60
2020/12/17 05:37:49;;;;;;;11.30;6.20;;;8.90;99.90;;;;;;5019787;28;20180;-61
2020/12/17 05:40:15;;;;;;;13.65;7.25;;;8.90;99.90;;;;;;5020021;28;20034;-61
2020/12/17 05:42:41;;;;;;;17.95;7.55;;;8.90;99.90;;;;;;5018774;28;20442;-61
2020/12/17 05:45:24;;;;;;;11.30;6.68;;;8.90;99.90;;;;;;5020962;28;20544;-61
2020/12/17 05:48:13;;;;;;;11.07;6.93;;;8.90;99.90;;;;;;5020070;28;20344;-59
2020/12/17 05:50:58;;;;;;;16.23;7.80;;;8.90;99.90;;;;;;5017785;28;20034;-60
2020/12/17 05:53:27;;;;;;;14.30;7.07;;;8.90;99.90;;;;;;5018728;28;20041;-60
2020/12/17 05:56:01;;;;;;;14.38;7.72;;;8.90;99.90;;;;;;5017538;28;20033;-60
2020/12/17 05:58:37;;;;;;;13.50;7.80;;;8.90;99.90;;;;;;5020954;28;20375;-61
2020/12/17 06:01:13;;;;;;;13.10;7.60;;;8.90;99.90;;;;;;5017758;28;20435;-62
2020/12/17 06:03:43;;;;;;;14.13;8.35;;;8.90;99.90;;;;;;5018299;28;20486;-61
2020/12/17 06:06:09;;;;;;;13.77;7.85;;;8.90;99.90;;;;;;5020514;28;20397;-62
2020/12/17 06:08:40;;;;;;;13.23;7.38;;;8.90;99.90;;;;;;5017407;28;20033;-60
2020/12/17 06:11:11;;;;;;;16.40;7.70;;;8.90;99.90;;;;;;5020929;28;20112;-61
2020/12/17 06:13:41;;;;;;;15.85;8.07;;;8.80;99.90;;;;;;5018227;28;20026;-60
2020/12/17 06:16:09;;;;;;;15.52;8.13;;;8.80;99.90;;;;;;5020435;28;20026;-60
2020/12/17 06:18:56;;;;;;;12.98;7.03;;;8.80;99.90;;;;;;5017972;28;20092;-60
2020/12/17 06:21:26;;;;;;;16.15;7.95;;;8.80;99.90;;;;;;5018297;28;20159;-61
2020/12/17 06:24:00;;;;;;;14.83;8.37;;;8.80;99.90;;;;;;5020348;28;21451;-60
2020/12/17 06:26:26;;;;;;;14.65;7.82;;;8.70;99.90;;;;;;5017433;28;20280;-60
2020/12/17 06:28:54;;;;;;;13.88;8.10;;;8.70;99.90;;;;;;5020159;28;20120;-60
2020/12/17 06:31:27;;;;;;;15.88;7.90;;;8.70;99.90;;;;;;5018013;28;20061;-60
2020/12/17 06:34:03;;;;;;;16.88;8.23;;;8.80;99.90;;;;;;5020483;28;20579;-60
2020/12/17 06:36:43;;;;;;;14.80;7.38;;;8.70;99.90;;;;;;5016846;28;20080;-61
2020/12/17 06:39:09;;;;;;;19.95;8.88;;;8.70;99.90;;;;;;5017931;28;20034;-61
2020/12/17 06:41:35;;;;;;;16.77;8.18;;;8.60;99.90;;;;;;5019652;28;20393;-61
2020/12/17 06:44:21;;;;;;;15.80;7.57;;;8.70;99.90;;;;;;5017246;28;20061;-61
2020/12/17 06:46:53;;;;;;;16.65;7.75;;;8.60;99.90;;;;;;5016434;28;20497;-61
2020/12/17 06:49:23;;;;;;;16.33;7.93;;;8.60;99.90;;;;;;5019447;28;20048;-61
2020/12/17 06:52:07;;;;;;;14.80;7.50;;;8.60;99.90;;;;;;5017682;28;20038;-60
2020/12/17 06:54:37;;;;;;;14.63;7.28;;;8.60;99.90;;;;;;5017137;28;20034;-59
2020/12/17 06:57:11;;;;;;;13.73;7.15;;;8.60;99.90;;;;;;5020089;28;20064;-59
2020/12/17 06:59:38;;;;;;;14.05;7.40;;;8.60;99.90;;;;;;5017314;28;20042;-60
2020/12/17 07:02:05;;;;;;;15.70;7.88;;;8.60;99.90;;;;;;5019984;28;20034;-60
2020/12/17 07:04:42;;;;;;;17.20;7.18;;;8.60;99.90;;;;;;5015256;28;20129;-60
2020/12/17 07:07:12;;;;;;;15.38;7.30;;;8.70;99.90;;;;;;5019286;28;20033;-60
2020/12/17 07:09:37;;;;;;;17.15;8.77;;;8.60;99.90;;;;;;5018763;28;20042;-61
2020/12/17 07:12:03;;;;;;;14.68;6.85;;;8.60;99.90;;;;;;5019604;28;20034;-60
2020/12/17 07:14:28;;;;;;;15.70;7.15;;;8.60;99.90;;;;;;5017010;28;20138;-64
2020/12/17 07:16:59;;;;;;;15.10;6.55;;;8.60;99.90;;;;;;5020191;28;20052;-60
2020/12/17 07:19:42;;;;;;;16.75;7.68;;;8.60;99.90;;;;;;5017159;28;20045;-61
2020/12/17 07:22:13;;;;;;;15.93;7.32;;;8.60;99.90;;;;;;5017597;28;20036;-61
2020/12/17 07:24:40;;;;;;;19.40;8.10;;;8.60;99.90;;;;;;5015873;28;20045;-61
2020/12/17 07:27:12;;;;;;;14.13;7.07;;;8.60;99.90;;;;;;5017479;28;20030;-61
2020/12/17 07:29:46;;;;;;;13.32;6.72;;;8.70;99.90;;;;;;5018968;28;20033;-61
2020/12/17 07:32:27;;;;;;;12.85;6.97;;;8.60;99.90;;;;;;5017987;28;20060;-60
2020/12/17 07:34:56;;;;;;;13.95;7.47;;;8.60;99.90;;;;;;5018124;28;20037;-60
2020/12/17 07:37:41;;;;;;;13.32;6.55;;;8.60;99.90;;;;;;5019722;28;20034;-60
2020/12/17 07:40:43;;;;;;;13.85;7.10;;;8.60;99.90;;;;;;5016487;28;20038;-60
2020/12/17 07:43:12;;;;;;;14.50;6.93;;;8.70;99.90;;;;;;5016658;28;20029;-60
2020/12/17 07:45:57;;;;;;;16.92;7.30;;;8.70;99.90;;;;;;5017803;28;20034;-60
2020/12/17 07:48:34;;;;;;;20.85;8.45;;;8.70;99.90;;;;;;5017626;28;20034;-60
2020/12/17 07:51:24;;;;;;;15.65;7.72;;;8.70;99.90;;;;;;5020188;28;20498;-60
2020/12/17 07:53:52;;;;;;;17.08;7.60;;;8.70;99.90;;;;;;5014632;28;20490;-60
2020/12/17 07:56:18;;;;;;;13.80;7.05;;;8.70;99.90;;;;;;5023550;28;20041;-61
2020/12/17 07:58:44;;;;;;;16.52;8.02;;;8.70;99.90;;;;;;5026050;28;20057;-61
2020/12/17 08:01:11;;;;;;;13.98;7.72;;;8.70;99.90;;;;;;5025188;28;20103;-61
2020/12/17 08:03:44;;;;;;;15.55;7.75;;;8.70;99.90;;;;;;5026826;28;20057;-61
2020/12/17 08:06:12;;;;;;;17.75;7.45;;;8.70;99.90;;;;;;5022787;28;20026;-60
2020/12/17 08:08:39;;;;;;;17.75;7.60;;;8.80;99.90;;;;;;5025909;28;20446;-60
2020/12/17 08:11:06;;;;;;;17.73;7.82;;;8.80;99.90;;;;;;5024167;28;20056;-60
2020/12/17 08:13:32;;;;;;;17.73;8.73;;;8.80;99.90;;;;;;5026379;28;20029;-63
2020/12/17 08:15:59;;;;;;;16.52;8.38;;;8.80;99.90;;;;;;5025661;28;20575;-61
2020/12/17 08:18:28;;;;;;;15.93;7.72;;;8.90;99.90;;;;;;5027750;28;20065;-61
2020/12/17 08:21:05;;;;;;;20.63;8.90;;;8.90;99.90;;;;;;5022183;28;20104;-60
2020/12/17 08:23:32;;;;;;;16.52;7.95;;;8.90;99.90;;;;;;5022658;28;20044;-60
2020/12/17 08:26:02;;;;;;;15.93;8.43;;;8.90;99.90;;;;;;5025254;28;20025;-60
2020/12/17 08:28:29;;;;;;;16.00;7.32;;;9.00;99.90;;;;;;5022856;28;20029;-61
2020/12/17 08:31:13;;;;;;;15.25;6.85;;;9.00;99.90;;;;;;5025935;28;20409;-60
2020/12/17 08:33:48;;;;;;;12.27;6.68;;;9.00;99.90;;;;;;5024891;28;20041;-61
2020/12/17 08:36:16;;;;;;;13.20;6.93;;;9.00;99.90;;;;;;5023744;28;20041;-60
2020/12/17 08:39:00;;;;;;;16.55;6.28;;;9.00;99.90;;;;;;5021256;28;20037;-60
2020/12/17 08:41:31;;;;;;;12.80;7.05;;;9.00;99.90;;;;;;5018909;28;20037;-60
2020/12/17 08:44:01;;;;;;;16.05;7.40;;;9.00;99.90;;;;;;5024653;28;20068;-60
2020/12/17 08:46:27;;;;;;;13.20;7.23;;;9.00;99.90;;;;;;5024750;28;20131;-60
2020/12/17 08:48:54;;;;;;;14.55;6.03;;;9.00;99.90;;;;;;5023130;28;20037;-60
2020/12/17 08:51:22;;;;;;;12.48;5.57;;;9.10;99.90;;;;;;5027877;28;20040;-64
2020/12/17 08:53:48;;;;;;;12.02;5.85;;;9.10;99.90;;;;;;5020757;28;20497;-61
2020/12/17 08:56:14;;;;;;;11.15;5.45;;;9.10;99.90;;;;;;5020531;28;20068;-60
2020/12/17 08:59:06;;;;;;;10.65;5.35;;;9.20;99.90;;;;;;5019557;28;20050;-60
2020/12/17 09:01:36;;;;;;;10.85;5.63;;;9.20;99.90;;;;;;5021593;28;20037;-61
2020/12/17 09:04:08;;;;;;;10.77;5.30;;;9.20;99.90;;;;;;5023465;28;20398;-60
2020/12/17 09:06:35;;;;;;;12.82;4.57;;;9.30;99.90;;;;;;5025603;28;20061;-61
2020/12/17 09:09:15;;;;;;;9.35;4.35;;;9.30;99.90;;;;;;5020735;28;20034;-61
2020/12/17 09:11:44;;;;;;;13.43;5.03;;;9.30;99.90;;;;;;5020456;28;20036;-60
2020/12/17 09:14:11;;;;;;;13.68;4.78;;;9.30;99.90;;;;;;5022116;28;20390;-61
2020/12/17 09:16:39;;;;;;;14.25;4.63;;;9.40;99.90;;;;;;5023184;28;20494;-61
2020/12/17 09:19:07;;;;;;;9.23;3.88;;;9.40;99.90;;;;;;5022741;28;20112;-61
2020/12/17 09:21:37;;;;;;;10.52;3.63;;;9.40;99.90;;;;;;5023827;28;20048;-62
2020/12/17 09:24:04;;;;;;;6.80;3.30;;;9.50;99.90;;;;;;5024481;28;20754;-61
2020/12/17 09:26:31;;;;;;;10.48;3.80;;;9.50;99.90;;;;;;5013736;28;20045;-60
2020/12/17 09:29:03;;;;;;;6.90;3.20;;;9.50;99.90;;;;;;5016557;28;20022;-62
2020/12/17 09:31:31;;;;;;;6.80;3.67;;;9.50;99.90;;;;;;5024045;28;20040;-62
2020/12/17 09:34:05;;;;;;;8.65;3.60;;;9.50;99.90;;;;;;5020518;28;20394;-61
2020/12/17 09:36:34;;;;;;;6.90;3.22;;;9.50;99.90;;;;;;5014929;28;20405;-61
2020/12/17 09:39:02;;;;;;;9.40;3.75;;;9.50;99.90;;;;;;5018141;28;20041;-62
2020/12/17 09:41:28;;;;;;;7.32;3.30;;;9.60;99.90;;;;;;5020824;28;20037;-62
2020/12/17 09:43:54;;;;;;;13.68;3.83;;;9.60;99.90;;;;;;5020356;28;20517;-60
2020/12/17 09:46:20;;;;;;;6.72;2.80;;;9.60;99.90;;;;;;5024204;28;20130;-60
2020/12/17 09:48:45;;;;;;;7.20;2.83;;;9.60;99.90;;;;;;5021931;28;20093;-60
2020/12/17 09:51:12;;;;;;;10.60;2.78;;;9.60;99.90;;;;;;5018626;28;20073;-61
2020/12/17 09:53:39;;;;;;;7.75;2.53;;;9.60;99.90;;;;;;5022489;28;20091;-64
2020/12/17 09:56:09;;;;;;;7.65;2.60;;;9.70;99.90;;;;;;5021776;28;21658;-61
2020/12/17 09:58:35;;;;;;;8.80;3.00;;;9.60;99.90;;;;;;5013697;28;20045;-61
2020/12/17 10:01:00;;;;;;;8.25;3.17;;;9.70;99.90;;;;;;5015445;28;20404;-61
2020/12/17 10:03:26;;;;;;;6.53;2.08;;;9.70;99.90;;;;;;5020652;28;20407;-61
2020/12/17 10:05:51;;;;;;;6.85;2.42;;;9.70;99.90;;;;;;5022060;28;20041;-61
2020/12/17 10:08:17;;;;;;;8.63;2.50;;;9.70;99.90;;;;;;5018468;28;20044;-62
2020/12/17 10:10:43;;;;;;;8.48;2.72;;;9.80;99.90;;;;;;5018471;28;20490;-61
2020/12/17 10:13:09;;;;;;;8.52;3.03;;;9.80;99.90;;;;;;5018921;28;20056;-62
2020/12/17 10:15:36;;;;;;;7.53;2.50;;;9.80;99.90;;;;;;5018920;28;20048;-62
2020/12/17 10:18:02;;;;;;;6.18;2.92;;;9.90;99.90;;;;;;5020105;28;20076;-62
2020/12/17 10:20:28;;;;;;;6.45;2.85;;;9.90;99.90;;;;;;5017461;28;20509;-62
2020/12/17 10:22:54;;;;;;;8.40;2.50;;;10.00;99.90;;;;;;5019157;28;20030;-61
2020/12/17 10:25:23;;;;;;;4.90;2.10;;;10.00;99.90;;;;;;5021127;28;20047;-61
2020/12/17 10:27:49;;;;;;;8.90;2.35;;;10.00;99.90;;;;;;5022204;28;20025;-62
2020/12/17 10:30:15;;;;;;;11.48;2.35;;;10.00;99.90;;;;;;5018707;28;20033;-60
2020/12/17 10:32:41;;;;;;;4.78;2.00;;;10.00;99.90;;;;;;5022163;28;20022;-60
2020/12/17 10:35:08;;;;;;;9.02;2.50;;;10.10;99.90;;;;;;5019396;28;20417;-61
2020/12/17 10:37:33;;;;;;;4.82;1.95;;;10.00;99.90;;;;;;5022134;28;20558;-61
2020/12/17 10:39:59;;;;;;;4.93;2.17;;;10.00;99.90;;;;;;5018649;28;20033;-61
2020/12/17 10:42:25;;;;;;;12.52;3.42;;;10.00;99.90;;;;;;5020049;28;20069;-61
2020/12/17 10:44:50;;;;;;;9.07;2.53;;;10.00;99.90;;;;;;5018656;28;20037;-60
2020/12/17 10:47:18;;;;;;;7.90;1.60;;;10.10;99.90;;;;;;5016650;28;20030;-61
2020/12/17 10:49:44;;;;;;;12.90;2.38;;;10.10;99.90;;;;;;5017426;28;20388;-61
2020/12/17 10:52:10;;;;;;;7.18;2.05;;;10.10;99.90;;;;;;5020283;28;20079;-60
2020/12/17 10:54:35;;;;;;;9.32;2.35;;;10.10;99.90;;;;;;5018388;28;20419;-60
2020/12/17 10:57:01;;;;;;;9.20;1.77;;;10.30;99.90;;;;;;5019046;28;20041;-60
2020/12/17 10:59:27;;;;;;;13.13;2.28;;;10.30;99.90;;;;;;5019904;28;20048;-61
2020/12/17 11:01:57;;;;;;;8.95;2.50;;;10.40;99.90;;;;;;5018111;28;20037;-60
2020/12/17 11:04:23;;;;;;;10.75;1.95;;;10.30;99.90;;;;;;5017955;28;20120;-61
2020/12/17 11:06:48;;;;;;;5.82;1.92;;;10.30;99.90;;;;;;5017618;28;20056;-61
2020/12/17 11:09:14;;;;;;;6.10;2.08;;;10.30;99.90;;;;;;5020838;28;20033;-61
2020/12/17 11:11:39;;;;;;;9.50;1.90;;;10.20;99.90;;;;;;5016941;28;20045;-61
2020/12/17 11:14:05;;;;;;;10.50;2.60;;;10.20;99.90;;;;;;5019300;28;20068;-61
2020/12/17 11:16:30;;;;;;;8.18;2.70;;;10.20;99.90;;;;;;5018231;28;20115;-61
2020/12/17 11:18:59;;;;;;;10.68;2.58;;;10.20;99.90;;;;;;5018620;28;20034;-61
2020/12/17 11:21:25;;;;;;;18.05;2.90;;;10.20;99.90;;;;;;5018600;28;20569;-60
2020/12/17 11:23:50;;;;;;;15.82;2.72;;;10.20;99.90;;;;;;5017715;28;20125;-60
2020/12/17 11:26:16;;;;;;;9.38;1.83;;;10.20;99.90;;;;;;5022329;28;20037;-61
2020/12/17 11:28:42;;;;;;;11.15;2.38;;;10.20;99.90;;;;;;5022747;28;20032;-60
2020/12/17 11:31:08;;;;;;;6.88;1.98;;;10.30;99.90;;;;;;5025977;28;20106;-61
2020/12/17 11:33:33;;;;;;;5.80;2.30;;;10.30;99.90;;;;;;5027915;28;20539;-60
2020/12/17 11:35:59;;;;;;;4.38;1.80;;;10.30;99.90;;;;;;5025857;28;20038;-60
2020/12/17 11:38:25;;;;;;;6.68;2.10;;;10.30;99.90;;;;;;5018926;28;20036;-60
2020/12/17 11:40:51;;;;;;;11.65;2.03;;;10.30;99.90;;;;;;5022196;28;20120;-60
2020/12/17 11:43:17;;;;;;;11.77;2.22;;;10.30;99.90;;;;;;5025857;28;20068;-60
2020/12/17 11:45:43;;;;;;;10.50;2.10;;;10.30;99.90;;;;;;5024264;28;20049;-61
2020/12/17 11:48:08;;;;;;;8.23;2.17;;;10.30;99.90;;;;;;5022753;28;20084;-61
2020/12/17 11:50:35;;;;;;;14.00;2.85;;;10.30;99.90;;;;;;5020940;28;20573;-60
2020/12/17 11:53:00;;;;;;;11.02;2.22;;;10.30;99.90;;;;;;5021372;28;20120;-60
2020/12/17 11:55:26;;;;;;;10.50;2.08;;;10.40;99.90;;;;;;5021280;28;20120;-61
2020/12/17 11:57:51;;;;;;;10.15;2.85;;;10.40;99.90;;;;;;5026583;28;20124;-60
2020/12/17 12:00:17;;;;;;;8.32;2.00;;;10.50;99.90;;;;;;5030398;28;20429;-60
2020/12/17 12:02:43;;;;;;;7.85;1.80;;;10.50;99.90;;;;;;5031806;28;20405;-61
2020/12/17 12:05:09;;;;;;;7.00;1.77;;;10.50;99.90;;;;;;5020598;28;20034;-60
2020/12/17 12:07:35;;;;;;;9.35;1.95;;;10.50;99.90;;;;;;5023501;28;20490;-61
2020/12/17 12:10:03;;;;;;;9.57;1.95;;;10.50;99.90;;;;;;5022150;28;20034;-60
2020/12/17 12:12:29;;;;;;;7.75;1.77;;;10.40;99.90;;;;;;5021274;28;20056;-60
2020/12/17 12:14:55;;;;;;;11.63;1.88;;;10.40;99.90;;;;;;5026513;28;20052;-60
2020/12/17 12:17:20;;;;;;;14.40;2.58;;;10.40;99.90;;;;;;5024608;28;20033;-60
2020/12/17 12:19:46;;;;;;;6.40;1.65;;;10.30;99.90;;;;;;5019920;28;20041;-60
2020/12/17 12:22:12;;;;;;;6.75;1.75;;;10.40;99.90;;;;;;5027519;28;20068;-61
2020/12/17 12:24:38;;;;;;;8.18;2.10;;;10.30;99.90;;;;;;5021207;28;20085;-61
2020/12/17 12:27:04;;;;;;;7.65;1.63;;;10.30;99.90;;;;;;5022423;28;20401;-61
2020/12/17 12:29:30;;;;;;;9.07;1.63;;;10.30;99.90;;;;;;5025942;28;20069;-61
2020/12/17 12:31:55;;;;;;;14.15;2.97;;;10.30;99.90;;;;;;5022473;28;20068;-60
2020/12/17 12:34:22;;;;;;;7.53;2.20;;;10.30;99.90;;;;;;5019205;28;20034;-61
2020/12/17 12:36:52;;;;;;;7.25;2.10;;;10.30;99.90;;;;;;5018973;28;20057;-61
2020/12/17 12:39:18;;;;;;;8.45;1.58;;;10.30;99.90;;;;;;5018648;28;20034;-61
2020/12/17 12:41:45;;;;;;;10.13;2.20;;;10.30;99.90;;;;;;5020645;28;20502;-62
2020/12/17 12:44:11;;;;;;;5.70;1.50;;;10.30;99.90;;;;;;5022222;28;20056;-62
2020/12/17 12:46:36;;;;;;;9.40;1.60;;;10.30;99.90;;;;;;5027230;28;20037;-61
2020/12/17 12:49:02;;;;;;;8.32;1.55;;;10.20;99.90;;;;;;5017105;28;20096;-61
2020/12/17 12:51:27;;;;;;;14.35;1.65;;;10.20;99.90;;;;;;5022708;28;20080;-61
2020/12/17 12:53:53;;;;;;;10.27;2.03;;;10.10;99.90;;;;;;5020901;28;20704;-61